U.S. Weather Extremes for
Tuesday, December 18, 2018

High Temperature


83°F at Roosevelt Roads Nas, PU
83°F at Charlotte Amalie Virgi, IS

Low Temperature


-9°F at Mount Washington, NH

High Precipitation


4.50in at Stampede Pass, WA


Data for lower 48 states and courtesy of
NWS-CPC

North Georgia & Southern Appalachians METAR Reports

KDZJ - Blairsville, Georgia, USA
Distance from station: NNW 11mi, 18km
Updated: Wed, 19-Dec-2018 9:35am CST
Clear
Clear
 Wind from calm
Wind:
Calm
Temperature: 46°F , 8°C
Dew Point: 37°F , 3°C
Humidity: 71%
Barometer: 30.13 inHg , 1020.3 hPa
Clouds: Clear
Visibility: 10 miles , 16 km
2018/12/19 15:35 KDZJ 191535Z AUTO 00000KT 10SM CLR 08/03 A3013 RMK AO2 T00790034
KAJR - Cornelia, Georgia, USA
Distance from station: SE 25mi, 41km
Updated: Wed, 19-Dec-2018 9:35am CST
Clear
Clear
 Wind from calm
Wind:
Calm
Temperature: 46°F , 8°C
Dew Point: 36°F , 2°C
Humidity: 66%
Barometer: 30.16 inHg , 1021.3 hPa
Clouds: Clear
Visibility: 7 miles , 11 km
2018/12/19 15:35 KAJR 191535Z AUTO 00000KT 7SM CLR 08/02 A3016 RMK AO2 T00800016
 
KGVL - Gainesville, Georgia, USA
Distance from station: S 31mi, 50km
Updated: Wed, 19-Dec-2018 8:53am CST
Clear
Clear
 Wind from E
Wind:
E 7 mph 11 km/h
Temperature: 45°F , 7°C
Wind Chill: 41°F , 5°C
Dew Point: 36°F , 2°C
Humidity: 71%
Barometer: 30.17 inHg , 1021.7 hPa
Clouds: Clear
Visibility: 10 miles , 16 km
2018/12/19 14:53 KGVL 191453Z AUTO 08006KT 10SM CLR 07/02 A3017 RMK AO2 SLP216 T00670017 53013
KRHP - Andrews, North Carolina, USA
Distance from station: N 33mi, 53km
Updated: Wed, 19-Dec-2018 9:40am CST
Clear
Clear
 Wind from calm
Wind:
Calm
Temperature: 39°F , 4°C
Dew Point: 36°F , 2°C
Humidity: 87%
Barometer: 30.14 inHg , 1020.7 hPa
Clouds: Clear
Visibility: 10 miles , 16 km
2018/12/19 15:40 KRHP 191540Z AUTO 00000KT 10SM CLR 04/02 A3014 RMK AO2 T00370022
 
KJZP - Jasper, Georgia, USA
Distance from station: WSW 35mi, 57km
Updated: Mon, 03-Dec-2018 8:15am CST
NOT Current
Partly Cloudy
Partly Cloudy
 Wind from N
Wind:
N 10 mph 17 km/h
Temperature: 48°F , 9°C
Wind Chill: 44°F , 7°C
Dew Point: 36°F , 2°C
Humidity: 62%
Barometer: 29.97 inHg , 1014.9 hPa
Clouds: Partly Cloudy
Visibility: 10 miles , 16 km
Cloud details: Partly Cloudy 12000 ft
2018/12/03 14:15 KJZP 031415Z AUTO 36009KT 10SM SCT120 09/02 A2997 RMK AO2 T00920023 PNO
KTOC - Toccoa, Georgia, USA
Distance from station: E 36mi, 58km
Updated: Wed, 19-Dec-2018 9:35am CST
Clear
Clear
 Wind from calm
Wind:
Calm
Temperature: 45°F , 7°C
Dew Point: 36°F , 2°C
Humidity: 71%
Barometer: 30.17 inHg , 1021.7 hPa
Clouds: Clear
Visibility: 10 miles , 16 km
2018/12/19 15:35 KTOC 191535Z AUTO 00000KT 10SM CLR 07/02 A3017 RMK AO2 T00740015
 
KCNI - Canton/Cherokee, Georgia, USA
Distance from station: SW 39mi, 63km
Updated: Wed, 19-Dec-2018 9:35am CST
Clear
Clear
 Wind from E
Wind:
E 5 mph 7 km/h
Temperature: 48°F , 9°C
Wind Chill: 46°F , 8°C
Dew Point: 32°F , 0°C
Humidity: 54%
Barometer: 30.15 inHg , 1021 hPa
Clouds: Clear
Visibility: 10 miles , 16 km
2018/12/19 15:35 KCNI 191535Z AUTO 08004KT 10SM CLR 09/00 A3015 RMK AO2
KJCA - Jefferson, Georgia, USA
Distance from station: SSE 41mi, 67km
Updated: Wed, 19-Dec-2018 9:35am CST
Clear
Clear
 Wind from ENE
Wind:
ENE 5 mph 7 km/h
Temperature: 46°F , 8°C
Wind Chill: 44°F , 7°C
Dew Point: 36°F , 2°C
Humidity: 66%
Barometer: 30.17 inHg , 1021.7 hPa
Clouds: Clear
Visibility: 10 miles , 16 km
2018/12/19 15:35 KJCA 191535Z AUTO 06004KT 10SM CLR 08/02 A3017 RMK AO2 PWINO T00780024
 
K1A5 - Macon/Franklin, North Carolina, USA
Distance from station: NE 45mi, 73km
Updated: Wed, 19-Dec-2018 9:40am CST
Clear
Clear
 Wind from calm
Wind:
Calm
Temperature: 37°F , 3°C
Dew Point: 36°F , 2°C
Humidity: 93%
Barometer: 30.16 inHg , 1021.3 hPa
Clouds: Clear
Visibility: 10 miles , 16 km
2018/12/19 15:40 K1A5 191540Z AUTO 00000KT 10SM CLR 03/02 A3016 RMK AO2 T00280018
KLZU - Lawrenceville, Georgia, USA
Distance from station: S 50mi, 81km
Updated: Wed, 19-Dec-2018 9:45am CST
Clear
Clear
 Wind from E
Wind:
E 8 mph 13 km/h
Temperature: 46°F , 8°C
Wind Chill: 42°F , 6°C
Dew Point: 37°F , 3°C
Humidity: 71%
Barometer: 30.14 inHg , 1020.7 hPa
Clouds: Clear
Visibility: 10 miles , 16 km
2018/12/19 15:45 KLZU 191545Z 08007KT 10SM SKC 08/03 A3014
 
K18A - Canon/Franklin, Georgia, USA
Distance from station: ESE 51mi, 82km
Updated: Thu, 15-Nov-2018 11:35am CST
NOT Current
Overcast
Overcast
 Wind from calm
Wind:
Calm
Temperature: 43°F , 6°C
Dew Point: 39°F , 4°C
Humidity: 87%
Barometer: 30.03 inHg , 1016.9 hPa
Clouds: Overcast
Visibility: 10 miles , 16 km
Cloud details: Mostly Cloudy 1400 ft
Overcast 2000 ft
2018/11/15 17:35 K18A 151735Z AUTO 00000KT 10SM BKN014 OVC020 06/04 A3003 RMK AO2 T00620037
KWDR - Winder/Barrow, Georgia, USA
Distance from station: SSE 52mi, 84km
Updated: Wed, 19-Dec-2018 9:15am CST
Clear
Clear
 Wind from calm
Wind:
Calm
Temperature: 45°F , 7°C
Dew Point: 36°F , 2°C
Humidity: 71%
Barometer: 30.20 inHg , 1022.7 hPa
Clouds: Clear
Visibility: 10 miles , 16 km
2018/12/19 15:15 KWDR 191515Z AUTO 00000KT 10SM CLR 07/02 A3020 RMK AO1
 
KDNN - Dalton, Georgia, USA
Distance from station: W 54mi, 87km
Updated: Wed, 19-Dec-2018 9:35am CST
Clear
Clear
 Wind from SSE
Wind:
SSE 6 mph 9 km/h
Temperature: 46°F , 8°C
Wind Chill: 43°F , 6°C
Dew Point: 43°F , 6°C
Humidity: 87%
Barometer: 30.13 inHg , 1020.3 hPa
Clouds: Clear
Visibility: 10 miles , 16 km
2018/12/19 15:35 KDNN 191535Z AUTO 16005KT 10SM CLR 08/06 A3013 RMK AO2
K24A - Sylva, North Carolina, USA
Distance from station: NE 58mi, 93km
Updated: Wed, 19-Dec-2018 9:40am CST
Clear
Clear
 Wind from calm
Wind:
Calm
Temperature: 37°F , 3°C
Dew Point: 30°F , -1°C
Humidity: 75%
Barometer: 30.14 inHg , 1020.7 hPa
Clouds: Clear
Visibility: 10 miles , 16 km
2018/12/19 15:40 K24A 191540Z AUTO 00000KT 10SM CLR 03/M01 A3014 RMK AO2 T00321008
 
KCEU - Clemson, South Carolina, USA
Distance from station: E 59mi, 95km
Updated: Wed, 19-Dec-2018 8:54am CST
Clear
Clear
 Wind from calm
Wind:
Calm
Temperature: 43°F , 6°C
Dew Point: 36°F , 2°C
Humidity: 76%
Barometer: 30.18 inHg , 1022 hPa
Clouds: Clear
Visibility: 10 miles , 16 km
2018/12/19 14:54 KCEU 191454Z AUTO 00000KT 10SM CLR 06/02 A3018 RMK AO2 SLP221 T00560022 51009
KMMI - Athens/Mcminn, Tennessee, USA
Distance from station: NW 60mi, 97km
Updated: Wed, 19-Dec-2018 9:35am CST
Clear
Clear
 Wind from calm
Wind:
Calm
Temperature: 39°F , 4°C
Dew Point: 37°F , 3°C
Humidity: 93%
Barometer: 30.13 inHg , 1020.3 hPa
Clouds: Clear
Visibility: 10 miles , 16 km
2018/12/19 15:35 KMMI 191535Z AUTO 00000KT 10SM CLR 04/03 A3013 RMK A01
 
KCZL - Calhoun, Georgia, USA
Distance from station: WSW 61mi, 97km
Updated: Wed, 19-Dec-2018 9:35am CST
Clear
Clear
 Wind from calm
Wind:
Calm
Temperature: 45°F , 7°C
Dew Point: 39°F , 4°C
Humidity: 81%
Barometer: 30.14 inHg , 1020.7 hPa
Clouds: Clear
Visibility: 10 miles , 16 km
2018/12/19 15:35 KCZL 191535Z AUTO 00000KT 10SM CLR 07/04 A3014 RMK AO2
KPDK - Peachtree/Dekalb, Georgia, USA
Distance from station: SSW 61mi, 98km
Updated: Wed, 19-Dec-2018 8:53am CST
Clear
Clear
 Wind from calm
Wind:
Calm
Temperature: 45°F , 7°C
Dew Point: 36°F , 2°C
Humidity: 71%
Barometer: 30.14 inHg , 1020.7 hPa
Clouds: Clear
Visibility: 7 miles , 11 km
2018/12/19 14:53 KPDK 191453Z 00000KT 7SM CLR 07/02 A3014 RMK AO2 SLP216 T00720022 51010
 
KRZR - Cleveland Reg., Tennessee, USA
Distance from station: NW 61mi, 98km
Updated: Wed, 19-Dec-2018 9:35am CST
Clear
Clear
 Wind from calm
Wind:
Calm
Temperature: 43°F , 6°C
Dew Point: 39°F , 4°C
Humidity: 87%
Barometer: 30.10 inHg , 1019.3 hPa
Clouds: Clear
Visibility: 9 miles , 14 km
2018/12/19 15:35 KRZR 191535Z AUTO 00000KT 9SM CLR 06/04 A3010 RMK A01
KRYY - Marietta Mccolum, Georgia, USA
Distance from station: SW 62mi, 99km
Updated: Wed, 19-Dec-2018 9:48am CST
Light rain, Clear
Light rain, Clear
 Wind from E
Wind:
E 9 mph 15 km/h
Temperature: 48°F , 9°C
Wind Chill: 44°F , 7°C
Dew Point: 39°F , 4°C
Humidity: 71%
Barometer: 30.13 inHg , 1020.3 hPa
Summary: Light Rain
Clouds: Clear
Visibility: 10 miles , 16 km
2018/12/19 15:48 KRYY 191548Z 10008KT 10SM -RA CLR 09/04 A3013 RMK AO2 RAB48 SLP925 P0000 T00890039

Metar display script from Saratoga-Weather.org